Portada
METAR-TAF:

METAR-TAF

Aeroports :

Vorónej, Rússia

latitud: 51-39N, longitud: 039-15E, altitud: 154 m

Observació

L'informe es va fer fa 26 minuts, a les 13:00 UTC
Vent 12 kt del Oest, variant entre Sud/Sud-Oest i Oest
Temperatura 27°C
Humitat 30%
Pressió 1016 hPa
Visibilitat 10 km o més
sense núvols per sota de 1500 mi sense presència de cumulonimbus.

METAR: UUOO 201300Z 26006MPS 210V280 CAVOK 27/08 Q1016 R30/090070 NOSIG RMK QFE749

Hora: 16:26 (13:26 UTC)

Pronòstic

L'informe es va fer fa 2 hores i 27 minuts, a les 10:59 UTC
Pronòstic vàlid del 20 a les 12 UTC al 20 a les 21 UTC
Vent 12 kt del Oest
Visibilitat 10 km o més
Cel ennuvolat a una alçada de 4000 ft

TAF: UUOO 201059Z 2012/2021 27006MPS 9999 BKN040

Observacions i pronòstics meteorològics de més de 4000 aeroports (METAR i TAF).

Les estacions disponibles són els punts grocs i vermells al mapa.

Posi el ratolí al punt desitjat per veure el nom de l'estació.

Feu clic per veure les observacions i els pronòstics meteorològics.

Per canviar el mapa: feu clic els botons verds amb una creu de color negre per apropar; al botó verd amb un guió per allunyar la imatge; o en les fletxes verdes per a mapes adjacents.


METAR-TAF: